Latest Weather Observations for Urandangi

IDQ60801

The Bureau's Brisbane Office is moving locations in November 2018. In the lead up to and during the move, some weather observations or other data on our website may be delayed or temporarily unavailable. Thank you for your patience during this transition.

Issued at 2:22 pm EST Thursday 15 November 2018 (issued every 10 minutes, with the page automatically refreshed every 10 minutes)

About weather observations | Map of weather stations | Latest weather observations for QLD | Other Formats
Station Details ID: 037058 Name: URANDANGI AERODROME Lat: -21.60 Lon: 138.37 Height: 178.6 m
Data from the previous 72 hours. | See also: Recent months at Urandangi
Date/Time
EST
Temp
°C
App
Temp
°C
Dew
Point
°C
Rel
Hum
%
Delta-T
°C
Wind Press
QNH
hPa
Press
MSL
hPa
Rain since
9am
mm
Dir  Spd
km/h
Gust
km/h
Spd
kts
Gust
kts
15/02:00pm 38.4 36.0 7.2 15 17.7 E 9 20 5 11 1011.6 1010.5 0.0
15/01:30pm 38.6 36.9 10.0 18 16.9 E 9 17 5 9 1011.9 1010.8 0.0
15/01:00pm 37.1 35.9 10.4 20 15.8 SE 7 11 4 6 1012.5 1011.3 0.0
15/12:30pm 35.7 34.6 10.0 21 15.0 SSE 6 11 3 6 1012.9 1011.7 0.0
15/12:00pm 35.7 34.6 10.7 22 14.8 SSE 7 11 4 6 1013.2 1012.0 0.0
15/11:30am 35.3 34.3 10.4 22 14.6 SE 6 11 3 6 1013.5 1012.3 0.0
15/11:00am 35.2 33.6 10.3 22 14.6 SE 9 19 5 10 1013.7 1012.5 0.0
15/10:30am 35.4 34.4 12.4 25 13.9 SE 9 19 5 10 1014.0 1012.8 0.0
15/10:00am 33.6 31.6 11.5 26 13.1 SE 13 19 7 10 1014.2 1013.0 0.0
15/09:30am 32.7 30.8 12.9 30 11.9 SE 15 20 8 11 1014.4 1013.2 0.0
15/09:00am 31.6 30.0 13.8 34 10.8 SE 15 20 8 11 1014.3 1013.1 0.2
15/08:30am 29.9 28.1 13.2 36 10.0 SSE 15 20 8 11 1014.2 1013.0 0.2
15/08:00am 29.0 28.6 14.0 39 9.1 S 9 13 5 7 1014.1 1012.9 0.2
15/07:30am 26.7 28.8 16.3 53 6.5 CALM 0 0 0 0 1014.1 1012.9 0.2
15/07:00am 25.1 26.5 17.3 62 4.9 SW 6 6 3 3 1013.8 1012.6 0.2
15/06:30am 24.3 25.8 17.5 66 4.3 W 6 7 3 4 1013.5 1012.3 0.2
15/06:00am 24.8 26.1 17.5 64 4.6 WNW 7 9 4 5 1013.1 1011.9 0.2
15/05:30am 24.0 25.7 18.0 69 3.8 WNW 6 6 3 3 1012.6 1011.4 0.2
15/05:00am 24.8 27.4 17.5 64 4.6 CALM 0 0 0 0 1011.9 1010.8 0.2
15/04:30am 24.8 26.6 18.3 67 4.1 W 6 7 3 4 1011.7 1010.6 0.2
15/04:00am 25.3 27.6 18.5 66 4.3 W 4 6 2 3 1011.4 1010.3 0.2
15/03:30am 26.0 28.4 18.7 64 4.7 W 4 7 2 4 1011.2 1010.1 0.2
15/03:00am 26.3 29.3 19.2 65 4.6 WNW 2 6 1 3 1011.0 1009.8 0.2
15/02:30am 26.4 29.8 19.3 65 4.6 CALM 0 2 0 1 1011.0 1009.8 0.2
15/02:00am 26.8 29.0 19.2 63 4.9 W 6 7 3 4 1011.3 1010.2 0.2
15/01:30am 27.1 29.1 17.8 56 5.9 WNW 4 6 2 3 1011.6 1010.5 0.2
15/01:00am 27.1 28.9 17.3 55 6.2 SSW 4 4 2 2 1011.6 1010.5 0.2
15/12:30am 26.7 27.9 16.9 55 6.1 S 6 7 3 4 1011.7 1010.6 0.2
15/12:00am 26.8 27.8 16.4 53 6.5 SSE 6 6 3 3 1011.9 1010.8 0.2
 
Date/Time
EST
Temp
°C
App
Temp
°C
Dew
Point
°C
Rel
Hum
%
Delta-T
°C
Wind Press
QNH
hPa
Press
MSL
hPa
Rain since
9am
mm
Dir  Spd
km/h
Gust
km/h
Spd
kts
Gust
kts
14/11:30pm 27.8 29.6 16.4 50 7.1 ENE 2 4 1 2 1011.9 1010.8 0.2
14/11:00pm 28.2 28.4 16.8 50 7.2 ENE 11 15 6 8 1011.8 1010.7 0.0
14/10:30pm 27.9 26.5 17.1 51 6.8 NE 20 28 11 15 1012.2 1011.0 0.0
14/10:00pm 27.2 27.8 20.3 66 4.6 NE 17 22 9 12 1012.3 1011.1 0.0
14/09:30pm 27.7 27.2 18.7 58 5.8 NE 19 28 10 15 1011.9 1010.8 0.0
14/09:00pm 31.7 28.5 15.2 36 10.3 ENE 26 44 14 24 1011.3 1010.2 0.0
14/08:30pm 29.4 27.2 16.9 47 7.9 ESE 24 35 13 19 1011.0 1009.8 0.0
14/08:00pm 31.6 30.6 16.7 40 9.5 ESE 17 24 9 13 1009.9 1008.7 0.0
14/07:30pm 31.2 29.6 16.4 41 9.3 ESE 20 33 11 18 1009.9 1008.7 0.0
14/07:02pm 30.6 27.2 15.8 40 9.2 SSE 28 50 15 27 1009.9 1008.7 0.0
14/07:00pm 30.8 28.8 15.6 39 9.5 SSE 20 44 11 24 1010.0 1008.8 0.0
14/06:30pm 33.8 32.7 15.3 33 11.6 ENE 15 22 8 12 1008.8 1007.6 0.0
14/06:00pm 35.4 34.4 15.7 31 12.5 ESE 15 24 8 13 1008.2 1007.0 0.0
14/05:30pm 34.2 29.4 14.7 31 12.1 SW 33 54 18 29 1008.5 1007.3 0.0
14/05:24pm 33.1 30.0 15.6 35 11.0 WSW 26 48 14 26 1008.5 1007.3 0.0
14/05:10pm 32.3 29.5 14.4 33 11.0 SSW 22 39 12 21 1008.6 1007.4 0.0
14/05:00pm 37.5 34.8 12.8 22 15.2 SSE 19 28 10 15 1008.0 1006.8 0.0
14/04:30pm 37.9 37.3 11.8 21 15.8 SE 6 17 3 9 1007.9 1006.7 0.0
14/04:00pm 39.0 37.9 12.0 20 16.5 SE 9 17 5 9 1008.1 1006.9 0.0
14/03:30pm 39.1 37.9 10.4 18 17.1 SW 7 19 4 10 1008.2 1007.0 0.0
14/03:00pm 38.6 37.6 12.4 21 16.1 ESE 9 17 5 9 1008.8 1007.6 0.0
14/02:30pm 38.7 37.1 10.1 18 16.9 ENE 9 17 5 9 1009.1 1007.9 0.0
14/02:00pm 38.5 38.5 13.7 23 15.5 SE 6 13 3 7 1009.6 1008.4 0.0
14/01:30pm 37.5 36.7 12.8 22 15.1 N 9 15 5 8 1010.1 1008.9 0.0
14/01:00pm 36.6 35.6 14.6 27 13.8 NNW 13 20 7 11 1010.4 1009.2 0.0
14/12:30pm 36.5 35.7 16.1 29 13.0 WNW 15 26 8 14 1010.9 1009.7 0.0
14/12:00pm 35.8 34.4 15.5 29 12.9 W 17 26 9 14 1011.5 1010.4 0.0
14/11:30am 34.5 33.0 16.4 34 11.6 WNW 19 28 10 15 1011.9 1010.8 0.0
14/11:00am 34.1 32.8 16.9 36 11.0 NW 19 32 10 17 1011.9 1010.8 0.0
14/10:30am 33.0 32.2 18.0 41 9.7 NW 19 24 10 13 1012.5 1011.3 0.0
14/10:00am 31.5 32.1 18.5 46 8.5 NW 13 24 7 13 1012.6 1011.4 0.0
14/09:30am 30.8 31.5 18.8 48 7.8 NW 13 17 7 9 1012.7 1011.5 0.0
14/09:00am 29.6 30.0 19.0 53 6.9 NW 15 20 8 11 1012.6 1011.4 2.8
14/08:30am 28.2 27.8 18.9 57 6.0 NNW 19 22 10 12 1012.3 1011.1 2.8
14/08:00am 27.2 27.1 19.5 62 5.0 NNW 19 24 10 13 1012.1 1010.9 2.8
14/07:30am 25.8 25.9 19.9 70 3.9 N 19 28 10 15 1011.8 1010.7 2.8
14/07:00am 24.6 25.0 19.9 75 3.1 N 17 24 9 13 1011.6 1010.5 2.8
14/06:30am 24.0 24.6 19.5 76 2.9 N 15 22 8 12 1011.6 1010.5 2.8
14/06:00am 24.0 24.7 19.7 77 2.8 N 15 19 8 10 1011.4 1010.3 2.8
14/05:30am 24.4 25.7 20.1 77 2.8 N 13 19 7 10 1011.2 1010.1 2.8
14/05:00am 24.5 26.4 20.6 79 2.6 N 11 15 6 8 1011.2 1010.1 2.8
14/04:30am 24.2 26.4 20.5 80 2.4 N 9 11 5 6 1010.7 1009.5 2.8
14/04:00am 24.4 26.9 20.3 78 2.7 NNE 7 9 4 5 1010.7 1009.5 2.8
14/03:30am 24.5 25.5 20.2 77 2.8 NNE 15 20 8 11 1010.1 1008.9 2.8
14/03:00am 24.6 24.9 20.3 77 2.8 NNE 19 24 10 13 1010.2 1009.0 2.8
14/02:30am 24.3 26.0 20.2 78 2.7 NNE 11 17 6 9 1010.4 1009.2 2.8
14/02:00am 24.4 25.7 20.1 77 2.8 NE 13 19 7 10 1010.2 1009.0 2.8
14/01:30am 24.6 26.2 19.9 75 3.1 NE 11 15 6 8 1010.2 1009.0 2.8
14/01:00am 24.8 25.3 20.1 75 3.1 NE 17 28 9 15 1010.3 1009.1 2.8
14/12:30am 24.6 25.8 20.7 79 2.6 ENE 15 20 8 11 1010.4 1009.2 2.8
14/12:00am 24.6 23.9 20.3 77 2.8 ENE 24 35 13 19 1010.7 1009.5 2.8
 
Date/Time
EST
Temp
°C
App
Temp
°C
Dew
Point
°C
Rel
Hum
%
Delta-T
°C
Wind Press
QNH
hPa
Press
MSL
hPa
Rain since
9am
mm
Dir  Spd
km/h
Gust
km/h
Spd
kts
Gust
kts
13/11:30pm 24.9 24.0 19.9 74 3.3 ENE 24 33 13 18 1010.9 1009.7 2.8
13/11:00pm 25.2 22.8 20.0 73 3.4 ENE 32 44 17 24 1011.0 1009.8 2.8
13/10:30pm 25.7 23.3 20.3 72 3.5 ENE 33 50 18 27 1010.6 1009.4 2.8
13/10:00pm 26.1 23.6 20.2 70 3.9 ENE 33 43 18 23 1010.2 1009.0 2.8
13/09:30pm 27.3 24.7 19.4 62 5.1 E 32 44 17 24 1009.6 1008.4 2.8
13/09:00pm 27.0 27.2 21.3 71 3.8 ESE 22 30 12 16 1009.2 1008.0 2.8
13/08:30pm 28.0 28.9 20.8 65 4.8 ESE 17 24 9 13 1008.7 1007.5 2.8
13/08:00pm 28.2 27.7 20.0 61 5.4 NE 22 28 12 15 1007.6 1006.4 2.8
13/07:30pm 29.1 27.1 19.1 54 6.5 NE 28 41 15 22 1007.5 1006.3 2.8
13/07:00pm 30.2 33.4 22.4 63 5.3 SSW 9 9 5 5 1006.0 1004.8 2.8
13/06:30pm 31.3 34.2 19.9 50 7.6 SSE 4 11 2 6 1005.3 1004.1 2.8
13/06:00pm 30.7 32.2 19.7 52 7.3 S 11 19 6 10 1005.2 1004.0 2.8
13/05:39pm 26.9 24.4 19.8 65 4.6 SSW 32 48 17 26 1006.0 1004.8 2.8
13/05:35pm 28.2 24.7 19.7 60 5.6 SSW 37 57 20 31 1005.9 1004.7 2.6
13/05:30pm 27.8 22.9 18.2 56 6.2 SSW 41 57 22 31 1005.8 1004.6 1.4
13/05:26pm 28.0 22.8 18.4 56 6.2 SW 43 57 23 31 1006.0 1004.8 1.2
13/05:14pm 32.0 28.6 15.9 38 10.1 WSW 28 78 15 42 1005.2 1004.0 0.4
13/05:12pm 32.8 30.5 15.8 36 10.7 W 22 50 12 27 1005.2 1004.0 0.2
13/05:10pm 38.0 35.8 13.3 23 15.3 W 17 43 9 23 1004.9 1003.7 0.0
13/05:00pm 39.8 37.7 11.0 18 17.4 WNW 13 20 7 11 1004.4 1003.2 0.0
13/04:30pm 40.8 37.9 10.9 17 18.1 WNW 17 32 9 17 1004.4 1003.2 0.0
13/04:00pm 41.3 37.9 10.4 16 18.6 NNW 19 30 10 16 1004.3 1003.1 0.0
13/03:30pm 40.0 36.6 11.2 18 17.4 NNW 20 35 11 19 1004.8 1003.6 0.0
13/03:00pm 40.4 37.5 12.3 19 17.3 WNW 19 33 10 18 1005.3 1004.1 0.0
13/02:30pm 40.5 37.5 12.4 19 17.3 NW 20 30 11 16 1006.2 1005.0 0.0
13/02:00pm 40.5 38.3 13.2 20 17.0 NW 17 30 9 16 1006.7 1005.5 0.0
13/01:30pm 39.8 37.3 14.1 22 16.2 NNW 20 32 11 17 1007.4 1006.2 0.0
13/01:00pm 39.6 36.9 14.6 23 15.8 NNW 22 35 12 19 1007.9 1006.7 0.0
13/12:30pm 38.7 36.2 15.1 24 15.0 NNW 22 35 12 19 1008.6 1007.4 0.0
13/12:00pm 39.0 35.5 15.4 25 15.1 NW 28 41 15 22 1009.2 1008.0 0.0
13/11:30am 37.6 34.4 15.4 27 14.1 NW 26 46 14 25 1009.5 1008.3 0.0
13/11:25am 37.8 34.5 16.1 27 13.9 NW 28 46 15 25 1009.6 1008.4 0.0
13/11:00am 37.5 34.5 15.9 28 13.8 NNW 26 39 14 21 1009.9 1008.7 0.0
13/10:30am 36.6 34.3 16.7 30 12.8 N 24 35 13 19 1010.5 1009.3 0.0
13/10:00am 35.8 32.9 17.0 32 12.2 N 28 41 15 22 1010.6 1009.4 0.0
13/09:30am 34.5 32.2 17.7 37 10.9 N 26 35 14 19 1010.6 1009.4 0.0
13/09:00am 33.6 32.3 18.1 39 10.1 N 22 32 12 17 1010.8 1009.6 0.0
13/08:30am 32.4 31.7 18.6 44 9.0 N 20 30 11 16 1010.6 1009.4 0.0
13/08:00am 31.5 31.0 19.2 48 8.1 N 20 26 11 14 1010.6 1009.4 0.0
13/07:30am 30.2 30.7 19.3 52 7.2 N 15 22 8 12 1010.4 1009.2 0.0
13/07:00am 29.3 30.2 18.4 51 7.0 N 11 19 6 10 1010.2 1009.0 0.0
13/06:30am 27.8 29.2 17.3 52 6.6 N 6 7 3 4 1010.0 1008.8 0.0
13/06:00am 27.7 28.6 17.5 53 6.5 N 9 9 5 5 1009.6 1008.4 0.0
13/05:30am 28.3 28.9 17.8 53 6.7 N 11 15 6 8 1009.2 1008.0 0.0
13/05:00am 28.8 29.5 18.0 52 6.9 N 11 15 6 8 1008.7 1007.5 0.0
13/04:30am 29.1 28.9 17.6 50 7.3 N 15 20 8 11 1008.3 1007.1 0.0
13/04:00am 29.3 29.3 17.2 48 7.7 N 13 19 7 10 1008.2 1007.0 0.0
13/03:30am 29.7 29.3 17.2 47 7.9 N 15 19 8 10 1008.1 1006.9 0.0
13/03:00am 30.0 29.8 17.5 47 8.0 N 15 20 8 11 1008.2 1007.0 0.0
13/02:30am 30.4 30.2 17.5 46 8.3 N 15 20 8 11 1008.4 1007.2 0.0
13/02:00am 30.8 29.8 17.5 45 8.5 N 19 26 10 14 1008.4 1007.2 0.0
13/01:30am 31.1 29.9 17.0 42 9.0 N 19 24 10 13 1008.6 1007.4 0.0
13/01:00am 31.3 30.4 16.9 42 9.2 N 17 26 9 14 1008.9 1007.7 0.0
13/12:30am 31.4 31.7 18.0 44 8.7 NNE 13 20 7 11 1009.0 1007.8 0.0
13/12:00am 32.0 31.2 17.9 43 9.1 NNE 19 24 10 13 1008.9 1007.7 0.0
 
Date/Time
EST
Temp
°C
App
Temp
°C
Dew
Point
°C
Rel
Hum
%
Delta-T
°C
Wind Press
QNH
hPa
Press
MSL
hPa
Rain since
9am
mm
Dir  Spd
km/h
Gust
km/h
Spd
kts
Gust
kts
12/11:30pm 32.5 30.9 17.5 40 9.7 NE 22 30 12 16 1009.2 1008.0 0.0
12/11:00pm 32.9 30.2 16.7 38 10.3 NE 26 39 14 21 1009.1 1007.9 0.0
12/10:30pm 33.2 29.6 15.2 33 11.2 NE 28 37 15 20 1008.7 1007.5 0.0
12/10:00pm 34.3 31.3 13.7 29 12.7 NNE 22 39 12 21 1008.4 1007.2 0.0
12/09:57pm 34.8 32.5 13.0 26 13.3 NNE 17 39 9 21 1008.3 1007.1 0.0
12/09:30pm 34.7 33.7 12.4 26 13.4 NNE 9 11 5 6 1008.0 1006.8 0.0
12/09:00pm 34.9 34.0 12.5 25 13.6 NNE 9 11 5 6 1007.7 1006.5 0.0
12/08:30pm 35.5 34.6 12.5 25 13.9 NNE 9 13 5 7 1007.6 1006.4 0.0
12/08:00pm 36.0 34.6 12.3 24 14.4 NNE 11 17 6 9 1007.4 1006.2 0.0
12/07:30pm 36.5 34.5 12.7 24 14.5 NNE 15 20 8 11 1006.9 1005.7 0.0
12/07:00pm 37.2 34.2 12.6 23 15.1 NNE 20 32 11 17 1006.6 1005.4 0.0
12/06:30pm 37.8 35.3 12.4 22 15.5 N 17 24 9 13 1006.4 1005.2 0.0
12/06:00pm 38.5 35.6 13.0 22 15.8 N 20 33 11 18 1006.2 1005.0 0.0
12/05:30pm 38.3 35.0 12.8 22 15.7 N 22 32 12 17 1005.9 1004.7 0.0
12/05:00pm 38.2 34.5 12.7 21 15.7 N 24 35 13 19 1006.0 1004.8 0.0
12/04:30pm 38.1 34.4 12.7 22 15.6 N 24 33 13 18 1006.2 1005.0 0.0
12/04:00pm 38.8 35.8 12.5 21 16.2 N 20 30 11 16 1006.3 1005.1 0.0
12/03:30pm 39.1 35.9 12.0 20 16.5 N 20 32 11 17 1006.5 1005.3 0.0
12/03:00pm 39.1 35.0 11.3 19 16.8 NNW 24 37 13 20 1006.9 1005.7 0.0
12/02:30pm 39.9 35.7 11.1 18 17.4 NW 24 41 13 22 1007.1 1005.9 0.0

Other Formats:

Comma delimited format used in spreadsheet applications
http://www.bom.gov.au/fwo/IDQ60801/IDQ60801.94344.axf

JavaScript Object Notation format (JSON) in row-major order
http://www.bom.gov.au/fwo/IDQ60801/IDQ60801.94344.json